»·PEaware :: ASA984 KSLC-KSEA

ASA984 :: KSLC-KSEA

FLIGHT INFORMATION

Flight Status: Arrived
Operator:
Alaska Airlines
More flights by this operator :: More flights under this callsign
Pilot: Anonymous 15639 (15639)
Aircraft: BOEING 727-200
(B722)
More flights by this aircraft type
Origin: KSLC Salt Lake City Intl
United States
Destination: KSEA Seattle-Tacoma Intl
United States
More flights between these airports :: More routes between these airports
Route: +SLC4 TWF J15 BOI J54 BKE PDT CHINS3
File this flight plan on PilotEdge
Remarks:
Altitude:
(Current/Filed)
32,000ft
Speed:
(Current/Filed)
488kts
Departed: 20-Aug-18 03:31 PM
Arrived: 20-Aug-18 05:08 PM
Distance/Time
Traveled:
597nm/1:37
Distance/Time
To Go:
Arrived

Flight Plot

Page will automatically refresh every two minutes.

Flight plan parsing failed; only flown route is shown


Map Options




Map Legend


Flown Route
Filed Route
Departure Airport
Arrival Airport
Navaid (VOR, NDB)
Fix

Horizontal Profiles

Position Reports

Time Latitude Longitude Heading Altitude Ground
Speed
20-Aug-18 15:02 40.785604 -111.977907 229 4238ft 0kts
20-Aug-18 15:03 40.785604 -111.977907 229 4238ft 0kts
20-Aug-18 15:04 40.785604 -111.977907 229 4238ft 0kts
20-Aug-18 15:05 40.785604 -111.977907 229 4238ft 0kts
20-Aug-18 15:06 40.785604 -111.977907 229 4238ft 0kts
20-Aug-18 15:07 40.785604 -111.977907 229 4238ft 0kts
20-Aug-18 15:08 40.785604 -111.977907 229 4238ft 0kts
20-Aug-18 15:09 40.785604 -111.977907 229 4238ft 0kts
20-Aug-18 15:10 40.785604 -111.977907 229 4238ft 0kts
20-Aug-18 15:11 40.785604 -111.977907 229 4238ft 0kts
20-Aug-18 15:12 40.785604 -111.977907 229 4238ft 0kts
20-Aug-18 15:13 40.785604 -111.977907 229 4238ft 0kts
20-Aug-18 15:14 40.785604 -111.977907 230 4238ft 0kts
20-Aug-18 15:15 40.785604 -111.977907 229 4238ft 0kts
20-Aug-18 15:16 40.785604 -111.977907 229 4238ft 0kts
20-Aug-18 15:17 40.785604 -111.977907 229 4238ft 0kts
20-Aug-18 15:18 40.785697 -111.977761 229 4239ft 2kts
20-Aug-18 15:19 40.785896 -111.977051 284 4239ft 2kts
20-Aug-18 15:20 40.785493 -111.976557 352 4239ft 0kts
20-Aug-18 15:21 40.785420 -111.976549 354 4238ft 0kts
20-Aug-18 15:22 40.785420 -111.976549 354 4238ft 0kts
20-Aug-18 15:23 40.785421 -111.976549 354 4238ft 0kts
20-Aug-18 15:24 40.787962 -111.976850 354 4239ft 15kts
20-Aug-18 15:25 40.791984 -111.977305 355 4238ft 12kts
20-Aug-18 15:26 40.795146 -111.977683 355 4239ft 9kts
20-Aug-18 15:27 40.797827 -111.977995 354 4238ft 10kts
20-Aug-18 15:28 40.800398 -111.978284 354 4238ft 7kts
20-Aug-18 15:29 40.802826 -111.978394 8 4238ft 11kts
20-Aug-18 15:30 40.805733 -111.978468 354 4239ft 9kts
20-Aug-18 15:31 40.807299 -111.977247 119 4238ft 7kts
20-Aug-18 15:32 40.792895 -111.975255 175 4239ft 137kts
20-Aug-18 15:33 40.756012 -111.989634 257 5359ft 162kts
20-Aug-18 15:34 40.782645 -112.045146 306 6689ft 188kts
20-Aug-18 15:35 40.815913 -112.102236 304 8278ft 204kts
20-Aug-18 15:36 40.853735 -112.167431 304 9656ft 242kts
20-Aug-18 15:37 40.901364 -112.237238 307 11465ft 273kts
20-Aug-18 15:38 40.954579 -112.312936 307 13643ft 285kts
20-Aug-18 15:39 41.009496 -112.389785 307 15723ft 292kts
20-Aug-18 15:40 41.065945 -112.468073 307 17627ft 298kts
20-Aug-18 15:41 41.124603 -112.549000 307 18933ft 319kts
20-Aug-18 15:42 41.188246 -112.636955 307 20140ft 341kts
20-Aug-18 15:43 41.255409 -112.729681 306 21365ft 359kts
20-Aug-18 15:44 41.325950 -112.826758 307 22591ft 372kts
20-Aug-18 15:45 41.398714 -112.926843 307 23813ft 382kts
20-Aug-18 15:46 41.472980 -113.028976 307 25023ft 387kts
20-Aug-18 15:47 41.548571 -113.132228 307 26222ft 389kts
20-Aug-18 15:48 41.624424 -113.234371 307 27401ft 389kts
20-Aug-18 15:49 41.702832 -113.333415 322 28563ft 399kts
20-Aug-18 15:50 41.792011 -113.407883 302 29749ft 366kts
20-Aug-18 15:51 41.858687 -113.509843 302 30707ft 362kts
20-Aug-18 15:52 41.911403 -113.616495 268 31669ft 323kts
20-Aug-18 15:53 41.953183 -113.721735 308 32027ft 362kts
20-Aug-18 15:54 42.027599 -113.817195 304 32022ft 377kts
20-Aug-18 15:55 42.106350 -113.916952 308 32017ft 400kts
20-Aug-18 15:56 42.182510 -114.026415 302 32012ft 407kts
20-Aug-18 15:57 42.257951 -114.144239 303 32023ft 422kts
20-Aug-18 15:58 42.334851 -114.263045 303 32031ft 421kts
20-Aug-18 15:59 42.411821 -114.382262 303 32030ft 420kts
20-Aug-18 16:00 42.488244 -114.501149 303 32029ft 419kts
20-Aug-18 16:01 42.564396 -114.619887 303 32028ft 418kts
20-Aug-18 16:02 42.639161 -114.739229 302 32041ft 417kts
20-Aug-18 16:03 42.714746 -114.858947 302 32040ft 419kts
20-Aug-18 16:04 42.790661 -114.978957 302 32038ft 419kts
20-Aug-18 16:05 42.866629 -115.099530 302 32006ft 420kts
20-Aug-18 16:06 42.942420 -115.220421 302 31959ft 421kts
20-Aug-18 16:07 43.018224 -115.341794 303 31958ft 421kts
20-Aug-18 16:08 43.094954 -115.462542 306 31959ft 422kts
20-Aug-18 16:09 43.176710 -115.577534 303 31951ft 418kts
20-Aug-18 16:10 43.251054 -115.699266 303 31962ft 418kts
20-Aug-18 16:11 43.325740 -115.821243 305 31965ft 419kts
20-Aug-18 16:12 43.400921 -115.943382 305 31966ft 419kts
20-Aug-18 16:13 43.475940 -116.065808 305 31978ft 420kts
20-Aug-18 16:14 43.550985 -116.188914 305 31976ft 420kts
20-Aug-18 16:15 43.638415 -116.297647 313 31977ft 424kts
20-Aug-18 16:16 43.725628 -116.406862 313 31970ft 425kts
20-Aug-18 16:17 43.813151 -116.516629 312 31964ft 426kts
20-Aug-18 16:18 43.900587 -116.626672 312 31965ft 426kts
20-Aug-18 16:19 43.986556 -116.737437 312 31979ft 426kts
20-Aug-18 16:20 44.073991 -116.848833 312 31983ft 428kts
20-Aug-18 16:21 44.161784 -116.959578 313 31981ft 429kts
20-Aug-18 16:22 44.252729 -117.068032 315 31981ft 431kts
20-Aug-18 16:23 44.343030 -117.177807 315 31985ft 432kts
20-Aug-18 16:24 44.433441 -117.288241 315 32012ft 432kts
20-Aug-18 16:25 44.523741 -117.398384 315 32059ft 432kts
20-Aug-18 16:26 44.613441 -117.509933 313 32062ft 432kts
20-Aug-18 16:27 44.701569 -117.624682 314 32060ft 432kts
20-Aug-18 16:28 44.788521 -117.740171 312 32068ft 433kts
20-Aug-18 16:29 44.874953 -117.858389 310 32064ft 433kts
20-Aug-18 16:30 44.962676 -117.975696 314 32067ft 436kts
20-Aug-18 16:31 45.052063 -118.090861 319 32046ft 437kts
20-Aug-18 16:32 45.141839 -118.205744 319 32054ft 441kts
20-Aug-18 16:33 45.232325 -118.322498 318 32054ft 445kts
20-Aug-18 16:34 45.323400 -118.441274 318 32042ft 450kts
20-Aug-18 16:35 45.415554 -118.562206 318 32029ft 453kts
20-Aug-18 16:36 45.507248 -118.683944 316 32028ft 457kts
20-Aug-18 16:37 45.598486 -118.806235 318 32028ft 460kts
20-Aug-18 16:38 45.687865 -118.937599 310 32031ft 467kts
20-Aug-18 16:39 45.766865 -119.083396 315 32022ft 466kts
20-Aug-18 16:40 45.849287 -119.226313 318 31997ft 465kts
20-Aug-18 16:41 45.934159 -119.366498 318 31985ft 466kts
20-Aug-18 16:42 46.018941 -119.506183 318 31979ft 466kts
20-Aug-18 16:43 46.104107 -119.646445 318 31969ft 465kts
20-Aug-18 16:44 46.188381 -119.786565 315 31974ft 466kts
20-Aug-18 16:45 46.269420 -119.929892 316 32012ft 465kts
20-Aug-18 16:46 46.351475 -120.067597 321 32040ft 458kts
20-Aug-18 16:47 46.436201 -120.193217 321 30351ft 443kts
20-Aug-18 16:48 46.507387 -120.337061 310 28344ft 437kts
20-Aug-18 16:49 46.575019 -120.480145 310 26318ft 424kts
20-Aug-18 16:50 46.645080 -120.612156 315 24449ft 405kts
20-Aug-18 16:51 46.715860 -120.732327 316 23840ft 394kts
20-Aug-18 16:52 46.771722 -120.873401 302 24065ft 406kts
20-Aug-18 16:53 46.824320 -121.013152 305 22209ft 394kts
20-Aug-18 16:54 46.884280 -121.142965 311 19970ft 392kts
20-Aug-18 16:55 46.953974 -121.264142 312 17758ft 390kts
20-Aug-18 16:56 47.016754 -121.389844 308 15273ft 375kts
20-Aug-18 16:57 47.074684 -121.512464 306 11989ft 343kts
20-Aug-18 16:58 47.125953 -121.618043 307 11990ft 309kts
20-Aug-18 16:59 47.172552 -121.718648 305 11988ft 294kts
20-Aug-18 17:00 47.209410 -121.824629 276 11964ft 291kts
20-Aug-18 17:01 47.216649 -121.946642 274 10302ft 303kts
20-Aug-18 17:02 47.222034 -122.068111 274 9139ft 295kts
20-Aug-18 17:03 47.226948 -122.186537 275 7696ft 284kts
20-Aug-18 17:04 47.237141 -122.297067 308 4960ft 265kts
20-Aug-18 17:05 47.298906 -122.313818 5 3046ft 208kts
20-Aug-18 17:06 47.347483 -122.311840 0 2214ft 148kts
20-Aug-18 17:07 47.389694 -122.311422 359 1430ft 161kts
20-Aug-18 17:08 47.430462 -122.311241 359 631ft 139kts
20-Aug-18 17:09 47.457074 -122.310922 13 445ft 30kts
20-Aug-18 17:10 47.460054 -122.307817 79 445ft 12kts
20-Aug-18 17:11 47.461568 -122.306090 9 445ft 8kts
20-Aug-18 17:12 47.461298 -122.303766 180 445ft 6kts
20-Aug-18 17:13 47.461113 -122.303767 180 445ft 0kts
20-Aug-18 17:14 47.461113 -122.303767 180 445ft 0kts
20-Aug-18 17:15 47.461113 -122.303767 180 445ft 0kts

Navigation Log

Ident Type
Flight plan parsing failed, navigation log unavailable